Lancaster, New Hampshire
Current Conditions -  °F | °C
As of 7:52 AM on Wednesday 22 Oct 2014 (Local Time) from KHIE Reporting Station
Overcast Overcast  
Wind Chill: 41°   Ceiling: 6000
Heat Index: 47°   Visibility: 10mi
Dew Point: 42°   Wind: 13mph
Humidity: 83%   Direction: 80°E
Pressure: 30.16"   Gusts: NA
Location:  44.49°N, 71.57°W
Report Text: KHIE 221152Z AUTO 08011KT 10SM OVC060 08/06 A3016 RMK AO2 RAE1054 SLP220 P0000 60007 70031 T00830056 10083 20072 53018
Loading
Personal Weather Stations






























Interactive Weather Map
Tropical Storm Tracking
New forecast layout! Learn more

10-Day Weather Forecast

Advertisements
Track Severe Weather on mobile